sensor_id;sensor_type;location;lat;lon;timestamp;temperature;humidity
23497;DHT22;11925;48.122;11.560;2023-01-28T00:01:33;7.60;85.00
23497;DHT22;11925;48.122;11.560;2023-01-28T00:04:02;7.60;85.10
23497;DHT22;11925;48.122;11.560;2023-01-28T00:06:30;7.60;85.30
23497;DHT22;11925;48.122;11.560;2023-01-28T00:08:59;7.60;85.20
23497;DHT22;11925;48.122;11.560;2023-01-28T00:11:27;7.60;85.30
23497;DHT22;11925;48.122;11.560;2023-01-28T00:13:56;7.60;85.40
23497;DHT22;11925;48.122;11.560;2023-01-28T00:16:26;7.60;85.40
23497;DHT22;11925;48.122;11.560;2023-01-28T00:18:56;7.60;85.50
23497;DHT22;11925;48.122;11.560;2023-01-28T00:21:24;7.60;85.40
23497;DHT22;11925;48.122;11.560;2023-01-28T00:23:54;7.60;85.50
23497;DHT22;11925;48.122;11.560;2023-01-28T00:26:24;7.60;85.40
23497;DHT22;11925;48.122;11.560;2023-01-28T00:28:52;7.60;85.40
23497;DHT22;11925;48.122;11.560;2023-01-28T00:31:22;7.60;85.30
23497;DHT22;11925;48.122;11.560;2023-01-28T00:33:54;7.60;85.40
23497;DHT22;11925;48.122;11.560;2023-01-28T00:36:25;7.60;85.50
23497;DHT22;11925;48.122;11.560;2023-01-28T00:38:55;7.60;85.60
23497;DHT22;11925;48.122;11.560;2023-01-28T00:41:25;7.60;85.70
23497;DHT22;11925;48.122;11.560;2023-01-28T00:43:54;7.60;85.60
23497;DHT22;11925;48.122;11.560;2023-01-28T00:46:23;7.60;85.70
23497;DHT22;11925;48.122;11.560;2023-01-28T00:48:55;7.60;85.60
23497;DHT22;11925;48.122;11.560;2023-01-28T00:51:23;7.60;85.70
23497;DHT22;11925;48.122;11.560;2023-01-28T00:53:52;7.60;85.90
23497;DHT22;11925;48.122;11.560;2023-01-28T00:56:20;7.60;85.90
23497;DHT22;11925;48.122;11.560;2023-01-28T00:58:48;7.60;85.70
23497;DHT22;11925;48.122;11.560;2023-01-28T01:01:20;7.60;85.70
23497;DHT22;11925;48.122;11.560;2023-01-28T01:03:49;7.60;85.80
23497;DHT22;11925;48.122;11.560;2023-01-28T01:06:25;7.60;85.60
23497;DHT22;11925;48.122;11.560;2023-01-28T01:08:53;7.60;85.60
23497;DHT22;11925;48.122;11.560;2023-01-28T01:11:21;7.60;85.50
23497;DHT22;11925;48.122;11.560;2023-01-28T01:13:51;7.60;85.60
23497;DHT22;11925;48.122;11.560;2023-01-28T01:16:21;7.60;85.60
23497;DHT22;11925;48.122;11.560;2023-01-28T01:18:51;7.60;85.50
23497;DHT22;11925;48.122;11.560;2023-01-28T01:21:22;7.60;85.30
23497;DHT22;11925;48.122;11.560;2023-01-28T01:23:52;7.60;85.50
23497;DHT22;11925;48.122;11.560;2023-01-28T01:26:21;7.60;85.70
23497;DHT22;11925;48.122;11.560;2023-01-28T01:28:50;7.60;85.70
23497;DHT22;11925;48.122;11.560;2023-01-28T01:31:20;7.60;85.70
23497;DHT22;11925;48.122;11.560;2023-01-28T01:33:49;7.60;85.70
23497;DHT22;11925;48.122;11.560;2023-01-28T01:36:19;7.60;85.70
23497;DHT22;11925;48.122;11.560;2023-01-28T01:38:53;7.60;85.70
23497;DHT22;11925;48.122;11.560;2023-01-28T01:41:25;7.60;85.90
23497;DHT22;11925;48.122;11.560;2023-01-28T01:43:56;7.60;85.60
23497;DHT22;11925;48.122;11.560;2023-01-28T01:46:33;7.60;85.80
23497;DHT22;11925;48.122;11.560;2023-01-28T01:49:10;7.60;85.90
23497;DHT22;11925;48.122;11.560;2023-01-28T01:51:43;7.60;85.70
23497;DHT22;11925;48.122;11.560;2023-01-28T01:54:15;7.60;85.70
23497;DHT22;11925;48.122;11.560;2023-01-28T01:56:47;7.60;85.70
23497;DHT22;11925;48.122;11.560;2023-01-28T01:59:20;7.60;85.70
23497;DHT22;11925;48.122;11.560;2023-01-28T02:01:49;7.60;85.70
23497;DHT22;11925;48.122;11.560;2023-01-28T02:04:21;7.60;85.70
23497;DHT22;11925;48.122;11.560;2023-01-28T02:06:51;7.60;85.50
23497;DHT22;11925;48.122;11.560;2023-01-28T02:09:26;7.60;85.60
23497;DHT22;11925;48.122;11.560;2023-01-28T02:11:57;7.60;85.60
23497;DHT22;11925;48.122;11.560;2023-01-28T02:14:27;7.60;85.70
23497;DHT22;11925;48.122;11.560;2023-01-28T02:16:59;7.60;85.60
23497;DHT22;11925;48.122;11.560;2023-01-28T02:19:31;7.60;85.70
23497;DHT22;11925;48.122;11.560;2023-01-28T02:22:20;7.60;85.60
23497;DHT22;11925;48.122;11.560;2023-01-28T02:25:11;7.60;85.70
23497;DHT22;11925;48.122;11.560;2023-01-28T02:28:21;7.60;85.60
23497;DHT22;11925;48.122;11.560;2023-01-28T02:30:54;7.60;85.50
23497;DHT22;11925;48.122;11.560;2023-01-28T02:33:28;7.50;85.40
23497;DHT22;11925;48.122;11.560;2023-01-28T02:36:05;7.60;85.40
23497;DHT22;11925;48.122;11.560;2023-01-28T02:38:40;7.60;85.40
23497;DHT22;11925;48.122;11.560;2023-01-28T02:41:13;7.60;85.40
23497;DHT22;11925;48.122;11.560;2023-01-28T02:43:45;7.60;85.20
23497;DHT22;11925;48.122;11.560;2023-01-28T02:46:20;7.50;85.20
23497;DHT22;11925;48.122;11.560;2023-01-28T02:49:09;7.50;85.00
23497;DHT22;11925;48.122;11.560;2023-01-28T02:51:54;7.60;85.30
23497;DHT22;11925;48.122;11.560;2023-01-28T02:54:34;7.60;85.30
23497;DHT22;11925;48.122;11.560;2023-01-28T02:57:13;7.60;85.00
23497;DHT22;11925;48.122;11.560;2023-01-28T02:59:52;7.50;84.90
23497;DHT22;11925;48.122;11.560;2023-01-28T03:02:26;7.60;85.00
23497;DHT22;11925;48.122;11.560;2023-01-28T03:04:59;7.60;85.20
23497;DHT22;11925;48.122;11.560;2023-01-28T03:07:33;7.60;85.20
23497;DHT22;11925;48.122;11.560;2023-01-28T03:10:05;7.60;85.20
23497;DHT22;11925;48.122;11.560;2023-01-28T03:12:34;7.60;85.30
23497;DHT22;11925;48.122;11.560;2023-01-28T03:15:25;7.50;85.30
23497;DHT22;11925;48.122;11.560;2023-01-28T03:18:17;7.60;85.30
23497;DHT22;11925;48.122;11.560;2023-01-28T03:21:07;7.50;85.20
23497;DHT22;11925;48.122;11.560;2023-01-28T03:23:57;7.60;85.30
23497;DHT22;11925;48.122;11.560;2023-01-28T03:26:53;7.50;85.30
23497;DHT22;11925;48.122;11.560;2023-01-28T03:29:44;7.50;85.10
23497;DHT22;11925;48.122;11.560;2023-01-28T03:32:33;7.50;85.00
23497;DHT22;11925;48.122;11.560;2023-01-28T03:35:22;7.50;85.00
23497;DHT22;11925;48.122;11.560;2023-01-28T03:38:10;7.50;85.00
23497;DHT22;11925;48.122;11.560;2023-01-28T03:40:51;7.50;85.20
23497;DHT22;11925;48.122;11.560;2023-01-28T03:43:20;7.50;85.00
23497;DHT22;11925;48.122;11.560;2023-01-28T03:45:49;7.50;84.90
23497;DHT22;11925;48.122;11.560;2023-01-28T03:48:22;7.50;85.00
23497;DHT22;11925;48.122;11.560;2023-01-28T03:50:53;7.50;85.10
23497;DHT22;11925;48.122;11.560;2023-01-28T03:53:24;7.50;85.00
23497;DHT22;11925;48.122;11.560;2023-01-28T03:55:54;7.50;84.90
23497;DHT22;11925;48.122;11.560;2023-01-28T03:58:24;7.60;85.10
23497;DHT22;11925;48.122;11.560;2023-01-28T04:01:13;7.60;85.00
23497;DHT22;11925;48.122;11.560;2023-01-28T04:03:43;7.60;85.00
23497;DHT22;11925;48.122;11.560;2023-01-28T04:06:15;7.60;85.20
23497;DHT22;11925;48.122;11.560;2023-01-28T04:09:04;7.60;85.00
23497;DHT22;11925;48.122;11.560;2023-01-28T04:11:48;7.50;84.90
23497;DHT22;11925;48.122;11.560;2023-01-28T04:14:23;7.50;85.00
23497;DHT22;11925;48.122;11.560;2023-01-28T04:17:04;7.50;85.00
23497;DHT22;11925;48.122;11.560;2023-01-28T04:19:35;7.50;84.90
23497;DHT22;11925;48.122;11.560;2023-01-28T04:22:07;7.50;85.10
23497;DHT22;11925;48.122;11.560;2023-01-28T04:24:38;7.50;85.20
23497;DHT22;11925;48.122;11.560;2023-01-28T04:27:07;7.60;85.20
23497;DHT22;11925;48.122;11.560;2023-01-28T04:29:36;7.60;85.20
23497;DHT22;11925;48.122;11.560;2023-01-28T04:32:23;7.60;85.30
23497;DHT22;11925;48.122;11.560;2023-01-28T04:35:15;7.60;85.30
23497;DHT22;11925;48.122;11.560;2023-01-28T04:37:54;7.60;85.40
23497;DHT22;11925;48.122;11.560;2023-01-28T04:40:40;7.60;85.40
23497;DHT22;11925;48.122;11.560;2023-01-28T04:43:11;7.60;85.20
23497;DHT22;11925;48.122;11.560;2023-01-28T04:45:52;7.60;85.30
23497;DHT22;11925;48.122;11.560;2023-01-28T04:48:40;7.60;85.30
23497;DHT22;11925;48.122;11.560;2023-01-28T04:51:21;7.60;85.30
23497;DHT22;11925;48.122;11.560;2023-01-28T04:54:15;7.60;84.90
23497;DHT22;11925;48.122;11.560;2023-01-28T04:56:44;7.60;85.00
23497;DHT22;11925;48.122;11.560;2023-01-28T04:59:12;7.60;85.20
23497;DHT22;11925;48.122;11.560;2023-01-28T05:01:42;7.60;85.30
23497;DHT22;11925;48.122;11.560;2023-01-28T05:04:10;7.60;85.10
23497;DHT22;11925;48.122;11.560;2023-01-28T05:06:40;7.60;85.20
23497;DHT22;11925;48.122;11.560;2023-01-28T05:09:15;7.60;85.20
23497;DHT22;11925;48.122;11.560;2023-01-28T05:11:43;7.50;85.00
23497;DHT22;11925;48.122;11.560;2023-01-28T05:14:13;7.60;85.20
23497;DHT22;11925;48.122;11.560;2023-01-28T05:16:48;7.60;85.20
23497;DHT22;11925;48.122;11.560;2023-01-28T05:19:18;7.60;85.10
23497;DHT22;11925;48.122;11.560;2023-01-28T05:21:48;7.60;85.00
23497;DHT22;11925;48.122;11.560;2023-01-28T05:24:34;7.60;85.20
23497;DHT22;11925;48.122;11.560;2023-01-28T05:27:02;7.50;85.10
23497;DHT22;11925;48.122;11.560;2023-01-28T05:29:32;7.60;85.20
23497;DHT22;11925;48.122;11.560;2023-01-28T05:32:00;7.60;85.30
23497;DHT22;11925;48.122;11.560;2023-01-28T05:34:30;7.60;85.40
23497;DHT22;11925;48.122;11.560;2023-01-28T05:37:06;7.60;85.30
23497;DHT22;11925;48.122;11.560;2023-01-28T05:39:36;7.60;85.40
23497;DHT22;11925;48.122;11.560;2023-01-28T05:42:05;7.60;85.50
23497;DHT22;11925;48.122;11.560;2023-01-28T05:44:36;7.60;85.50
23497;DHT22;11925;48.122;11.560;2023-01-28T05:47:23;7.60;85.50
23497;DHT22;11925;48.122;11.560;2023-01-28T05:50:01;7.60;85.40
23497;DHT22;11925;48.122;11.560;2023-01-28T05:52:49;7.60;85.60
23497;DHT22;11925;48.122;11.560;2023-01-28T05:55:25;7.60;85.50
23497;DHT22;11925;48.122;11.560;2023-01-28T05:57:54;7.60;85.50
23497;DHT22;11925;48.122;11.560;2023-01-28T06:00:25;7.60;85.60
23497;DHT22;11925;48.122;11.560;2023-01-28T06:02:53;7.60;85.50
23497;DHT22;11925;48.122;11.560;2023-01-28T06:05:22;7.60;85.60
23497;DHT22;11925;48.122;11.560;2023-01-28T06:07:53;7.60;85.60
23497;DHT22;11925;48.122;11.560;2023-01-28T06:10:21;7.60;85.70
23497;DHT22;11925;48.122;11.560;2023-01-28T06:12:49;7.60;85.60
23497;DHT22;11925;48.122;11.560;2023-01-28T06:15:35;7.60;85.50
23497;DHT22;11925;48.122;11.560;2023-01-28T06:18:32;7.60;85.40
23497;DHT22;11925;48.122;11.560;2023-01-28T06:21:01;7.50;85.40
23497;DHT22;11925;48.122;11.560;2023-01-28T06:23:31;7.60;85.40
23497;DHT22;11925;48.122;11.560;2023-01-28T06:25:59;7.60;85.60
23497;DHT22;11925;48.122;11.560;2023-01-28T06:28:28;7.60;85.30
23497;DHT22;11925;48.122;11.560;2023-01-28T06:30:56;7.50;85.20
23497;DHT22;11925;48.122;11.560;2023-01-28T06:33:24;7.60;85.20
23497;DHT22;11925;48.122;11.560;2023-01-28T06:35:55;7.50;85.10
23497;DHT22;11925;48.122;11.560;2023-01-28T06:38:23;7.50;85.00
23497;DHT22;11925;48.122;11.560;2023-01-28T06:40:53;7.50;84.90
23497;DHT22;11925;48.122;11.560;2023-01-28T06:43:22;7.50;84.90
23497;DHT22;11925;48.122;11.560;2023-01-28T06:45:53;7.50;84.90
23497;DHT22;11925;48.122;11.560;2023-01-28T06:48:22;7.50;84.90
23497;DHT22;11925;48.122;11.560;2023-01-28T06:50:50;7.50;84.90
23497;DHT22;11925;48.122;11.560;2023-01-28T06:53:19;7.60;84.70
23497;DHT22;11925;48.122;11.560;2023-01-28T06:55:48;7.60;84.80
23497;DHT22;11925;48.122;11.560;2023-01-28T06:58:18;7.50;84.70
23497;DHT22;11925;48.122;11.560;2023-01-28T07:00:46;7.50;84.90
23497;DHT22;11925;48.122;11.560;2023-01-28T07:03:15;7.50;84.90
23497;DHT22;11925;48.122;11.560;2023-01-28T07:05:43;7.50;84.80
23497;DHT22;11925;48.122;11.560;2023-01-28T07:08:11;7.50;84.90
23497;DHT22;11925;48.122;11.560;2023-01-28T07:10:40;7.50;85.20
23497;DHT22;11925;48.122;11.560;2023-01-28T07:13:08;7.50;85.00
23497;DHT22;11925;48.122;11.560;2023-01-28T07:15:38;7.50;85.00
23497;DHT22;11925;48.122;11.560;2023-01-28T07:18:06;7.50;84.90
23497;DHT22;11925;48.122;11.560;2023-01-28T07:20:34;7.50;85.00
23497;DHT22;11925;48.122;11.560;2023-01-28T07:23:03;7.60;85.10
23497;DHT22;11925;48.122;11.560;2023-01-28T07:25:31;7.50;85.10
23497;DHT22;11925;48.122;11.560;2023-01-28T07:28:00;7.60;85.20
23497;DHT22;11925;48.122;11.560;2023-01-28T07:30:28;7.50;85.10
23497;DHT22;11925;48.122;11.560;2023-01-28T07:32:58;7.50;85.00
23497;DHT22;11925;48.122;11.560;2023-01-28T07:35:27;7.50;85.20
23497;DHT22;11925;48.122;11.560;2023-01-28T07:37:57;7.60;85.00
23497;DHT22;11925;48.122;11.560;2023-01-28T07:40:26;7.60;85.10
23497;DHT22;11925;48.122;11.560;2023-01-28T07:42:55;7.60;85.10
23497;DHT22;11925;48.122;11.560;2023-01-28T07:45:24;7.50;85.20
23497;DHT22;11925;48.122;11.560;2023-01-28T07:47:55;7.50;85.20
23497;DHT22;11925;48.122;11.560;2023-01-28T07:50:26;7.60;85.10
23497;DHT22;11925;48.122;11.560;2023-01-28T07:52:57;7.60;85.60
23497;DHT22;11925;48.122;11.560;2023-01-28T07:55:26;7.50;85.60
23497;DHT22;11925;48.122;11.560;2023-01-28T07:57:58;7.60;86.00
23497;DHT22;11925;48.122;11.560;2023-01-28T08:00:35;7.50;85.40
23497;DHT22;11925;48.122;11.560;2023-01-28T08:03:12;7.60;85.90
23497;DHT22;11925;48.122;11.560;2023-01-28T08:05:45;8.40;86.40
23497;DHT22;11925;48.122;11.560;2023-01-28T08:08:19;7.50;85.60
23497;DHT22;11925;48.122;11.560;2023-01-28T08:10:51;7.60;85.30
23497;DHT22;11925;48.122;11.560;2023-01-28T08:13:20;7.60;85.90
23497;DHT22;11925;48.122;11.560;2023-01-28T08:15:54;7.50;85.70
23497;DHT22;11925;48.122;11.560;2023-01-28T08:18:23;6.60;85.20
23497;DHT22;11925;48.122;11.560;2023-01-28T08:20:56;7.60;86.40
23497;DHT22;11925;48.122;11.560;2023-01-28T08:23:27;7.60;86.00
23497;DHT22;11925;48.122;11.560;2023-01-28T08:26:03;7.50;86.40
23497;DHT22;11925;48.122;11.560;2023-01-28T08:28:33;7.50;86.40
23497;DHT22;11925;48.122;11.560;2023-01-28T08:31:05;7.60;86.30
23497;DHT22;11925;48.122;11.560;2023-01-28T08:33:35;7.50;85.90
23497;DHT22;11925;48.122;11.560;2023-01-28T08:36:09;7.60;85.90
23497;DHT22;11925;48.122;11.560;2023-01-28T08:38:50;7.60;85.90
23497;DHT22;11925;48.122;11.560;2023-01-28T08:41:29;7.60;85.60
23497;DHT22;11925;48.122;11.560;2023-01-28T08:43:58;7.70;85.80
23497;DHT22;11925;48.122;11.560;2023-01-28T08:46:27;7.60;86.40
23497;DHT22;11925;48.122;11.560;2023-01-28T08:49:03;7.60;86.30
23497;DHT22;11925;48.122;11.560;2023-01-28T08:51:33;7.60;86.40
23497;DHT22;11925;48.122;11.560;2023-01-28T08:54:02;7.60;86.00
23497;DHT22;11925;48.122;11.560;2023-01-28T08:56:32;7.60;85.90
23497;DHT22;11925;48.122;11.560;2023-01-28T08:59:03;7.50;85.70
23497;DHT22;11925;48.122;11.560;2023-01-28T09:01:32;7.50;85.90
23497;DHT22;11925;48.122;11.560;2023-01-28T09:04:01;7.60;86.30
23497;DHT22;11925;48.122;11.560;2023-01-28T09:06:30;7.50;86.00
23497;DHT22;11925;48.122;11.560;2023-01-28T09:09:03;7.60;86.10
23497;DHT22;11925;48.122;11.560;2023-01-28T09:11:35;7.60;86.40
23497;DHT22;11925;48.122;11.560;2023-01-28T09:14:12;7.50;86.10
23497;DHT22;11925;48.122;11.560;2023-01-28T09:16:45;6.70;85.20
23497;DHT22;11925;48.122;11.560;2023-01-28T09:19:14;7.60;85.90
23497;DHT22;11925;48.122;11.560;2023-01-28T09:21:45;7.50;86.30
23497;DHT22;11925;48.122;11.560;2023-01-28T09:24:25;7.50;86.10
23497;DHT22;11925;48.122;11.560;2023-01-28T09:26:57;7.90;86.10
23497;DHT22;11925;48.122;11.560;2023-01-28T09:29:26;7.10;86.10
23497;DHT22;11925;48.122;11.560;2023-01-28T09:31:59;7.50;86.00
23497;DHT22;11925;48.122;11.560;2023-01-28T09:34:37;7.60;85.80
23497;DHT22;11925;48.122;11.560;2023-01-28T09:37:06;7.60;87.50
23497;DHT22;11925;48.122;11.560;2023-01-28T09:39:43;7.60;86.40
23497;DHT22;11925;48.122;11.560;2023-01-28T09:42:43;7.50;86.20
23497;DHT22;11925;48.122;11.560;2023-01-28T09:45:23;7.50;85.20
23497;DHT22;11925;48.122;11.560;2023-01-28T09:48:00;7.50;85.70
23497;DHT22;11925;48.122;11.560;2023-01-28T09:50:35;7.70;85.60
23497;DHT22;11925;48.122;11.560;2023-01-28T09:53:10;7.50;85.60
23497;DHT22;11925;48.122;11.560;2023-01-28T09:55:49;7.60;84.50
23497;DHT22;11925;48.122;11.560;2023-01-28T09:58:26;7.70;85.90
23497;DHT22;11925;48.122;11.560;2023-01-28T10:00:58;7.80;85.60
23497;DHT22;11925;48.122;11.560;2023-01-28T10:03:40;7.50;85.30
23497;DHT22;11925;48.122;11.560;2023-01-28T10:06:17;7.60;85.70
23497;DHT22;11925;48.122;11.560;2023-01-28T10:09:18;7.60;85.60
23497;DHT22;11925;48.122;11.560;2023-01-28T10:12:01;7.60;85.60
23497;DHT22;11925;48.122;11.560;2023-01-28T10:14:46;7.60;85.70
23497;DHT22;11925;48.122;11.560;2023-01-28T10:17:41;7.70;85.70
23497;DHT22;11925;48.122;11.560;2023-01-28T10:20:20;7.60;84.90
23497;DHT22;11925;48.122;11.560;2023-01-28T10:23:00;6.60;85.70
23497;DHT22;11925;48.122;11.560;2023-01-28T10:25:44;7.60;85.00
23497;DHT22;11925;48.122;11.560;2023-01-28T10:28:29;7.60;85.70
23497;DHT22;11925;48.122;11.560;2023-01-28T10:30:59;7.80;86.30
23497;DHT22;11925;48.122;11.560;2023-01-28T10:33:32;7.50;85.90
23497;DHT22;11925;48.122;11.560;2023-01-28T10:36:10;7.60;85.40
23497;DHT22;11925;48.122;11.560;2023-01-28T10:38:40;7.70;86.10
23497;DHT22;11925;48.122;11.560;2023-01-28T10:41:16;7.60;86.50
23497;DHT22;11925;48.122;11.560;2023-01-28T10:43:56;7.60;85.70
23497;DHT22;11925;48.122;11.560;2023-01-28T10:46:35;7.60;86.20
23497;DHT22;11925;48.122;11.560;2023-01-28T10:49:14;7.60;85.90
23497;DHT22;11925;48.122;11.560;2023-01-28T10:51:49;7.60;85.70
23497;DHT22;11925;48.122;11.560;2023-01-28T10:54:24;7.70;85.40
23497;DHT22;11925;48.122;11.560;2023-01-28T10:56:56;7.60;85.70
23497;DHT22;11925;48.122;11.560;2023-01-28T10:59:29;7.60;86.10
23497;DHT22;11925;48.122;11.560;2023-01-28T11:02:04;7.60;85.80
23497;DHT22;11925;48.122;11.560;2023-01-28T11:04:58;7.60;86.00
23497;DHT22;11925;48.122;11.560;2023-01-28T11:07:28;7.70;85.40
23497;DHT22;11925;48.122;11.560;2023-01-28T11:10:25;6.90;84.40
23497;DHT22;11925;48.122;11.560;2023-01-28T11:12:58;7.50;85.50
23497;DHT22;11925;48.122;11.560;2023-01-28T11:15:29;7.60;85.00
23497;DHT22;11925;48.122;11.560;2023-01-28T11:18:02;7.50;85.40
23497;DHT22;11925;48.122;11.560;2023-01-28T11:20:37;7.50;85.40
23497;DHT22;11925;48.122;11.560;2023-01-28T11:23:24;7.60;85.30
23497;DHT22;11925;48.122;11.560;2023-01-28T11:26:04;7.60;84.60
23497;DHT22;11925;48.122;11.560;2023-01-28T11:28:41;7.50;84.70
23497;DHT22;11925;48.122;11.560;2023-01-28T11:31:25;7.60;83.70
23497;DHT22;11925;48.122;11.560;2023-01-28T11:34:18;7.60;85.10
23497;DHT22;11925;48.122;11.560;2023-01-28T11:37:30;7.50;84.00
23497;DHT22;11925;48.122;11.560;2023-01-28T11:40:17;7.60;86.30
23497;DHT22;11925;48.122;11.560;2023-01-28T11:42:52;7.60;84.90
23497;DHT22;11925;48.122;11.560;2023-01-28T11:45:34;7.60;85.00
23497;DHT22;11925;48.122;11.560;2023-01-28T11:48:25;7.50;85.70
23497;DHT22;11925;48.122;11.560;2023-01-28T11:51:00;7.60;84.70
23497;DHT22;11925;48.122;11.560;2023-01-28T11:53:52;7.50;84.80
23497;DHT22;11925;48.122;11.560;2023-01-28T11:56:38;7.60;84.40
23497;DHT22;11925;48.122;11.560;2023-01-28T11:59:40;7.40;84.30
23497;DHT22;11925;48.122;11.560;2023-01-28T12:02:59;8.70;85.10
23497;DHT22;11925;48.122;11.560;2023-01-28T12:09:29;6.90;83.80
23497;DHT22;11925;48.122;11.560;2023-01-28T12:12:16;7.70;84.80
23497;DHT22;11925;48.122;11.560;2023-01-28T12:15:16;7.60;84.30
23497;DHT22;11925;48.122;11.560;2023-01-28T12:17:58;7.60;84.30
23497;DHT22;11925;48.122;11.560;2023-01-28T12:20:34;7.60;84.30
23497;DHT22;11925;48.122;11.560;2023-01-28T12:23:28;7.60;85.00
23497;DHT22;11925;48.122;11.560;2023-01-28T12:26:28;7.70;84.20
23497;DHT22;11925;48.122;11.560;2023-01-28T12:29:17;7.80;84.60
23497;DHT22;11925;48.122;11.560;2023-01-28T12:32:04;7.80;84.50
23497;DHT22;11925;48.122;11.560;2023-01-28T12:35:01;7.60;84.10
23497;DHT22;11925;48.122;11.560;2023-01-28T12:37:44;7.60;84.10
23497;DHT22;11925;48.122;11.560;2023-01-28T12:40:39;7.70;84.30
23497;DHT22;11925;48.122;11.560;2023-01-28T12:43:18;7.70;84.30
23497;DHT22;11925;48.122;11.560;2023-01-28T12:45:59;7.70;84.00
23497;DHT22;11925;48.122;11.560;2023-01-28T12:48:45;7.60;84.90
23497;DHT22;11925;48.122;11.560;2023-01-28T12:51:19;7.50;83.20
23497;DHT22;11925;48.122;11.560;2023-01-28T12:53:59;7.70;84.30
23497;DHT22;11925;48.122;11.560;2023-01-28T12:56:36;7.50;83.80
23497;DHT22;11925;48.122;11.560;2023-01-28T12:59:13;7.50;83.40
23497;DHT22;11925;48.122;11.560;2023-01-28T13:01:57;7.50;83.90
23497;DHT22;11925;48.122;11.560;2023-01-28T13:04:35;7.70;83.40
23497;DHT22;11925;48.122;11.560;2023-01-28T13:07:09;7.50;82.80
23497;DHT22;11925;48.122;11.560;2023-01-28T13:09:47;7.60;84.40
23497;DHT22;11925;48.122;11.560;2023-01-28T13:12:21;7.60;83.90
23497;DHT22;11925;48.122;11.560;2023-01-28T13:14:51;7.50;83.80
23497;DHT22;11925;48.122;11.560;2023-01-28T13:17:33;6.70;84.00
23497;DHT22;11925;48.122;11.560;2023-01-28T13:20:14;7.70;83.60
23497;DHT22;11925;48.122;11.560;2023-01-28T13:23:02;7.60;83.90
23497;DHT22;11925;48.122;11.560;2023-01-28T13:25:34;7.90;84.50
23497;DHT22;11925;48.122;11.560;2023-01-28T13:28:28;7.50;84.40
23497;DHT22;11925;48.122;11.560;2023-01-28T13:31:05;7.50;83.90
23497;DHT22;11925;48.122;11.560;2023-01-28T13:33:45;7.50;83.90
23497;DHT22;11925;48.122;11.560;2023-01-28T13:36:24;7.50;84.60
23497;DHT22;11925;48.122;11.560;2023-01-28T13:39:04;7.50;83.70
23497;DHT22;11925;48.122;11.560;2023-01-28T13:41:46;7.60;84.50
23497;DHT22;11925;48.122;11.560;2023-01-28T13:44:25;7.50;83.10
23497;DHT22;11925;48.122;11.560;2023-01-28T13:46:59;7.80;84.10
23497;DHT22;11925;48.122;11.560;2023-01-28T13:49:48;7.50;84.50
23497;DHT22;11925;48.122;11.560;2023-01-28T13:52:33;7.50;84.40
23497;DHT22;11925;48.122;11.560;2023-01-28T13:55:12;7.60;84.20
23497;DHT22;11925;48.122;11.560;2023-01-28T13:58:39;7.50;83.10
23497;DHT22;11925;48.122;11.560;2023-01-28T14:01:27;7.50;83.80
23497;DHT22;11925;48.122;11.560;2023-01-28T14:04:35;7.50;83.80
23497;DHT22;11925;48.122;11.560;2023-01-28T14:10:32;7.60;83.50
23497;DHT22;11925;48.122;11.560;2023-01-28T14:13:35;7.50;83.80
23497;DHT22;11925;48.122;11.560;2023-01-28T14:16:38;7.60;82.70
23497;DHT22;11925;48.122;11.560;2023-01-28T14:19:13;7.40;83.20
23497;DHT22;11925;48.122;11.560;2023-01-28T14:22:12;7.50;84.20
23497;DHT22;11925;48.122;11.560;2023-01-28T14:27:55;7.50;83.60
23497;DHT22;11925;48.122;11.560;2023-01-28T14:30:46;7.60;84.00
23497;DHT22;11925;48.122;11.560;2023-01-28T14:33:32;7.60;83.30
23497;DHT22;11925;48.122;11.560;2023-01-28T14:36:15;7.50;84.30
23497;DHT22;11925;48.122;11.560;2023-01-28T14:38:47;7.60;83.70
23497;DHT22;11925;48.122;11.560;2023-01-28T14:41:24;7.50;82.90
23497;DHT22;11925;48.122;11.560;2023-01-28T14:43:58;7.60;84.00
23497;DHT22;11925;48.122;11.560;2023-01-28T14:46:39;7.50;84.40
23497;DHT22;11925;48.122;11.560;2023-01-28T14:49:28;7.50;84.00
23497;DHT22;11925;48.122;11.560;2023-01-28T14:52:22;7.50;84.00
23497;DHT22;11925;48.122;11.560;2023-01-28T14:55:07;7.50;83.80
23497;DHT22;11925;48.122;11.560;2023-01-28T14:57:44;7.60;83.80
23497;DHT22;11925;48.122;11.560;2023-01-28T15:00:19;7.50;84.20
23497;DHT22;11925;48.122;11.560;2023-01-28T15:02:49;7.50;83.90
23497;DHT22;11925;48.122;11.560;2023-01-28T15:05:27;7.60;84.60
23497;DHT22;11925;48.122;11.560;2023-01-28T15:08:14;7.50;84.40
23497;DHT22;11925;48.122;11.560;2023-01-28T15:10:56;7.60;84.50
23497;DHT22;11925;48.122;11.560;2023-01-28T15:13:37;7.50;83.90
23497;DHT22;11925;48.122;11.560;2023-01-28T15:16:20;7.60;84.90
23497;DHT22;11925;48.122;11.560;2023-01-28T15:18:57;7.60;84.60
23497;DHT22;11925;48.122;11.560;2023-01-28T15:21:39;7.50;84.10
23497;DHT22;11925;48.122;11.560;2023-01-28T15:24:15;7.50;84.00
23497;DHT22;11925;48.122;11.560;2023-01-28T15:26:51;7.50;83.10
23497;DHT22;11925;48.122;11.560;2023-01-28T15:29:30;7.50;82.90
23497;DHT22;11925;48.122;11.560;2023-01-28T15:32:02;7.60;84.20
23497;DHT22;11925;48.122;11.560;2023-01-28T15:34:34;7.50;84.30
23497;DHT22;11925;48.122;11.560;2023-01-28T15:37:18;7.50;83.90
23497;DHT22;11925;48.122;11.560;2023-01-28T15:39:59;7.50;84.30
23497;DHT22;11925;48.122;11.560;2023-01-28T15:42:41;7.60;84.60
23497;DHT22;11925;48.122;11.560;2023-01-28T15:45:19;7.60;84.60
23497;DHT22;11925;48.122;11.560;2023-01-28T15:47:52;7.60;83.10
23497;DHT22;11925;48.122;11.560;2023-01-28T15:50:25;7.60;84.40
23497;DHT22;11925;48.122;11.560;2023-01-28T15:53:06;7.60;84.30
23497;DHT22;11925;48.122;11.560;2023-01-28T15:55:48;7.50;84.30
23497;DHT22;11925;48.122;11.560;2023-01-28T15:58:25;7.70;85.00
23497;DHT22;11925;48.122;11.560;2023-01-28T16:01:11;7.70;84.30
23497;DHT22;11925;48.122;11.560;2023-01-28T16:03:45;7.70;84.00
23497;DHT22;11925;48.122;11.560;2023-01-28T16:06:27;7.60;85.50
23497;DHT22;11925;48.122;11.560;2023-01-28T16:09:12;7.50;83.10
23497;DHT22;11925;48.122;11.560;2023-01-28T16:12:03;7.60;84.20
23497;DHT22;11925;48.122;11.560;2023-01-28T16:14:42;7.70;85.00
23497;DHT22;11925;48.122;11.560;2023-01-28T16:17:15;7.50;84.50
23497;DHT22;11925;48.122;11.560;2023-01-28T16:19:48;7.60;84.70
23497;DHT22;11925;48.122;11.560;2023-01-28T16:22:37;7.60;84.30
23497;DHT22;11925;48.122;11.560;2023-01-28T16:25:27;7.50;84.00
23497;DHT22;11925;48.122;11.560;2023-01-28T16:27:56;7.70;83.90
23497;DHT22;11925;48.122;11.560;2023-01-28T16:30:31;7.50;84.30
23497;DHT22;11925;48.122;11.560;2023-01-28T16:33:13;7.50;84.50
23497;DHT22;11925;48.122;11.560;2023-01-28T16:35:51;7.60;84.50
23497;DHT22;11925;48.122;11.560;2023-01-28T16:38:38;7.50;84.30
23497;DHT22;11925;48.122;11.560;2023-01-28T16:41:18;7.50;84.50